OOCL Nagoya — VRFX8 — position and weather

sailwx.info

Track history (hours):
 
Tides and Currents Weather Stations Pressure Air Temp Water Temp Dewpoint Dewpoint Depression Visibility Wind Speed Wind Dir Waves Ship Positions

OOCL Nagoya

Last reported at 2015-May-05 00:33 UTC. Time now 2015-May-05 01:10 UTC.
Position N 22°09' E 114°18'.

Length 261 m; draft 10 m.

Type: Cargo ship. MMSI: 477627900.

Date/timePositionNaut miles runAvg speedWind from/ knotsBaromVisibWave heightAir tempDewpointWater temp
2015-May-05 00:33N 22°09' E 114°18'1212.3
2015-May-04 23:33N 22°10' E 114°31'28512.9
2015-May-04 01:32N 22°30' E 119°38'1813.8
2015-May-04 00:14N 22°31' E 119°58'1014.2
2015-May-03 23:33N 22°32' E 120°08'1010.0
2015-May-03 22:32N 22°34' E 120°19'1 0.8
2015-May-03 21:30N 22°34' E 120°19'0 0.0
2015-May-03 20:11N 22°34' E 120°19'0 0.0
2015-May-03 19:18N 22°34' E 120°19'0 0.0
2015-May-03 18:23N 22°34' E 120°19'0 0.0
2015-May-03 17:29N 22°34' E 120°19'0 0.0
2015-May-03 16:17N 22°34' E 120°19'0 0.0
2015-May-03 15:23N 22°34' E 120°19'0 0.0
2015-May-03 14:29N 22°34' E 120°19'0 0.0
2015-May-03 13:24N 22°34' E 120°19'0 0.0
2015-May-03 12:29N 22°34' E 120°19'0 0.3
2015-May-03 11:33N 22°34' E 120°19'6 6.4
2015-May-03 10:33N 22°31' E 120°13'1312.6
2015-May-03 09:33N 22°18' E 120°14'  
2015-May-01 00:00N 30°48' E 132°30'22816.9 060 / 4705.0 5.4 2.022.021.022.0
2015-Apr-30 10:27N 34°00' E 134°56'1516.4
2015-Apr-30 09:34N 34°15' E 134°58'1615.7
2015-Apr-30 08:33N 34°28' E 135°08'1312.8
2015-Apr-30 07:33N 34°39' E 135°15'0 0.1
2015-Apr-30 06:30N 34°39' E 135°14'0 0.0
2015-Apr-30 05:30N 34°39' E 135°14'0 0.0
2015-Apr-30 04:30N 34°39' E 135°14'0 0.0
2015-Apr-30 03:30N 34°39' E 135°14'0 0.0
2015-Apr-30 02:30N 34°39' E 135°14'0 0.0
2015-Apr-30 01:24N 34°39' E 135°14'0 0.0
2015-Apr-30 00:24N 34°39' E 135°14'0 0.0
2015-Apr-29 23:30N 34°39' E 135°14'0 0.0
2015-Apr-29 22:24N 34°39' E 135°15'5 5.9
2015-Apr-29 21:34N 34°35' E 135°16'1615.9
2015-Apr-29 20:33N 34°22' E 135°04'1515.3
2015-Apr-29 19:33N 34°08' E 134°59'1212.0
2015-Apr-29 18:34N 33°56' E 134°59'217 5.0
2015-Apr-27 23:10N 34°46' E 139°15'1419.9
2015-Apr-27 22:29N 34°55' E 139°27'1819.4
2015-Apr-27 21:33N 35°06' E 139°44'1312.7
2015-Apr-27 20:33N 35°19' E 139°43'1414.3
2015-Apr-27 19:33N 35°32' E 139°51'6 5.8
2015-Apr-27 18:33N 35°36' E 139°47'0 0.0
2015-Apr-27 17:33N 35°36' E 139°47'0 0.0
2015-Apr-27 16:27N 35°36' E 139°47'0 0.0
2015-Apr-27 15:33N 35°36' E 139°47'0 0.0
2015-Apr-27 14:30N 35°36' E 139°47'0 0.0
2015-Apr-27 13:30N 35°36' E 139°47'0 0.0
2015-Apr-27 12:33N 35°36' E 139°47'0 0.0
2015-Apr-27 11:33N 35°36' E 139°47'0 0.0
2015-Apr-27 10:33N 35°36' E 139°47'0 0.0
2015-Apr-27 09:33N 35°36' E 139°47'0 0.0
2015-Apr-27 08:33N 35°36' E 139°47'0 0.0
2015-Apr-27 07:33N 35°36' E 139°47'0 0.0
2015-Apr-27 06:30N 35°36' E 139°47'0 0.0
2015-Apr-27 05:33N 35°36' E 139°47'0 0.0
2015-Apr-27 04:33N 35°36' E 139°47'0 0.0
2015-Apr-27 03:31N 35°36' E 139°47'8 8.0
2015-Apr-27 02:33N 35°30' E 139°52'1312.9
2015-Apr-27 01:33N 35°19' E 139°44'1110.8
2015-Apr-27 00:33N 35°08' E 139°46'1313.1
2015-Apr-26 23:34N 34°58' E 139°35'1614.4
2015-Apr-26 22:28N 34°50' E 139°19'55915.5
2015-Apr-25 10:26N 30°19' E 129°39'1915.6
2015-Apr-25 09:11N 30°08' E 129°20'1115.8
2015-Apr-25 08:30N 30°03' E 129°09'  
Track history (hours):
 
Tides and Currents Weather Stations Pressure Air Temp Water Temp Dewpoint Dewpoint Depression Visibility Wind Speed Wind Dir Waves Ship Positions

OOCL Nagoya

Last reported at 2015-May-05 00:33 UTC. Time now 2015-May-05 01:10 UTC.
Position N 22°09' E 114°18'.

Length 261 m; draft 10 m.

Type: Cargo ship. MMSI: 477627900.

Date/timePositionNaut miles runAvg speedWind from/ knotsBaromVisibWave heightAir tempDewpointWater temp
2015-May-05 00:33N 22°09' E 114°18'1212.3
2015-May-04 23:33N 22°10' E 114°31'28512.9
2015-May-04 01:32N 22°30' E 119°38'1813.8
2015-May-04 00:14N 22°31' E 119°58'1014.2
2015-May-03 23:33N 22°32' E 120°08'1010.0
2015-May-03 22:32N 22°34' E 120°19'1 0.8
2015-May-03 21:30N 22°34' E 120°19'0 0.0
2015-May-03 20:11N 22°34' E 120°19'0 0.0
2015-May-03 19:18N 22°34' E 120°19'0 0.0
2015-May-03 18:23N 22°34' E 120°19'0 0.0
2015-May-03 17:29N 22°34' E 120°19'0 0.0
2015-May-03 16:17N 22°34' E 120°19'0 0.0
2015-May-03 15:23N 22°34' E 120°19'0 0.0
2015-May-03 14:29N 22°34' E 120°19'0 0.0
2015-May-03 13:24N 22°34' E 120°19'0 0.0
2015-May-03 12:29N 22°34' E 120°19'0 0.3
2015-May-03 11:33N 22°34' E 120°19'6 6.4
2015-May-03 10:33N 22°31' E 120°13'1312.6
2015-May-03 09:33N 22°18' E 120°14'  
2015-May-01 00:00N 30°48' E 132°30'22816.9 060 / 4705.0 5.4 2.022.021.022.0
2015-Apr-30 10:27N 34°00' E 134°56'1516.4
2015-Apr-30 09:34N 34°15' E 134°58'1615.7
2015-Apr-30 08:33N 34°28' E 135°08'1312.8
2015-Apr-30 07:33N 34°39' E 135°15'0 0.1
2015-Apr-30 06:30N 34°39' E 135°14'0 0.0
2015-Apr-30 05:30N 34°39' E 135°14'0 0.0
2015-Apr-30 04:30N 34°39' E 135°14'0 0.0
2015-Apr-30 03:30N 34°39' E 135°14'0 0.0
2015-Apr-30 02:30N 34°39' E 135°14'0 0.0
2015-Apr-30 01:24N 34°39' E 135°14'0 0.0
2015-Apr-30 00:24N 34°39' E 135°14'0 0.0
2015-Apr-29 23:30N 34°39' E 135°14'0 0.0
2015-Apr-29 22:24N 34°39' E 135°15'5 5.9
2015-Apr-29 21:34N 34°35' E 135°16'1615.9
2015-Apr-29 20:33N 34°22' E 135°04'1515.3
2015-Apr-29 19:33N 34°08' E 134°59'1212.0
2015-Apr-29 18:34N 33°56' E 134°59'217 5.0
2015-Apr-27 23:10N 34°46' E 139°15'1419.9
2015-Apr-27 22:29N 34°55' E 139°27'1819.4
2015-Apr-27 21:33N 35°06' E 139°44'1312.7
2015-Apr-27 20:33N 35°19' E 139°43'1414.3
2015-Apr-27 19:33N 35°32' E 139°51'6 5.8
2015-Apr-27 18:33N 35°36' E 139°47'0 0.0
2015-Apr-27 17:33N 35°36' E 139°47'0 0.0
2015-Apr-27 16:27N 35°36' E 139°47'0 0.0
2015-Apr-27 15:33N 35°36' E 139°47'0 0.0
2015-Apr-27 14:30N 35°36' E 139°47'0 0.0
2015-Apr-27 13:30N 35°36' E 139°47'0 0.0
2015-Apr-27 12:33N 35°36' E 139°47'0 0.0
2015-Apr-27 11:33N 35°36' E 139°47'0 0.0
2015-Apr-27 10:33N 35°36' E 139°47'0 0.0
2015-Apr-27 09:33N 35°36' E 139°47'0 0.0
2015-Apr-27 08:33N 35°36' E 139°47'0 0.0
2015-Apr-27 07:33N 35°36' E 139°47'0 0.0
2015-Apr-27 06:30N 35°36' E 139°47'0 0.0
2015-Apr-27 05:33N 35°36' E 139°47'0 0.0
2015-Apr-27 04:33N 35°36' E 139°47'0 0.0
2015-Apr-27 03:31N 35°36' E 139°47'8 8.0
2015-Apr-27 02:33N 35°30' E 139°52'1312.9
2015-Apr-27 01:33N 35°19' E 139°44'1110.8
2015-Apr-27 00:33N 35°08' E 139°46'1313.1
2015-Apr-26 23:34N 34°58' E 139°35'1614.4
2015-Apr-26 22:28N 34°50' E 139°19'55915.5
2015-Apr-25 10:26N 30°19' E 129°39'1915.6
2015-Apr-25 09:11N 30°08' E 129°20'1115.8
2015-Apr-25 08:30N 30°03' E 129°09'  

Dump ship's entire track history